sensor_id;sensor_type;location;lat;lon;timestamp;pressure;altitude;pressure_sealevel;temperature
61977;BMP280;45905;50.570;10.428;2023-02-28T00:01:33;99013.31;;;0.08
61977;BMP280;45905;50.570;10.428;2023-02-28T00:04:01;99011.81;;;0.04
61977;BMP280;45905;50.570;10.428;2023-02-28T00:06:28;99010.34;;;0.00
61977;BMP280;45905;50.570;10.428;2023-02-28T00:08:56;99018.09;;;-0.07
61977;BMP280;45905;50.570;10.428;2023-02-28T00:11:23;99025.66;;;-0.09
61977;BMP280;45905;50.570;10.428;2023-02-28T00:13:51;99016.63;;;-0.11
61977;BMP280;45905;50.570;10.428;2023-02-28T00:16:21;99020.81;;;-0.12
61977;BMP280;45905;50.570;10.428;2023-02-28T00:18:49;99020.00;;;-0.12
61977;BMP280;45905;50.570;10.428;2023-02-28T00:21:18;99017.63;;;-0.15
61977;BMP280;45905;50.570;10.428;2023-02-28T00:23:45;99010.22;;;-0.17
61977;BMP280;45905;50.570;10.428;2023-02-28T00:26:13;99013.50;;;-0.16
61977;BMP280;45905;50.570;10.428;2023-02-28T00:28:43;99021.06;;;-0.18
61977;BMP280;45905;50.570;10.428;2023-02-28T00:31:11;99013.66;;;-0.19
61977;BMP280;45905;50.570;10.428;2023-02-28T00:33:38;99009.78;;;-0.26
61977;BMP280;45905;50.570;10.428;2023-02-28T00:36:08;99012.50;;;-0.30
61977;BMP280;45905;50.570;10.428;2023-02-28T00:38:37;99016.88;;;-0.35
61977;BMP280;45905;50.570;10.428;2023-02-28T00:41:06;99016.13;;;-0.37
61977;BMP280;45905;50.570;10.428;2023-02-28T00:43:37;99016.13;;;-0.37
61977;BMP280;45905;50.570;10.428;2023-02-28T00:46:04;99018.59;;;-0.37
61977;BMP280;45905;50.570;10.428;2023-02-28T00:48:32;99016.22;;;-0.40
61977;BMP280;45905;50.570;10.428;2023-02-28T00:51:00;99017.25;;;-0.44
61977;BMP280;45905;50.570;10.428;2023-02-28T00:53:27;99018.97;;;-0.46
61977;BMP280;45905;50.570;10.428;2023-02-28T00:55:56;99022.59;;;-0.53
61977;BMP280;45905;50.570;10.428;2023-02-28T00:58:25;99019.47;;;-0.57
61977;BMP280;45905;50.570;10.428;2023-02-28T01:00:53;99015.41;;;-0.60
61977;BMP280;45905;50.570;10.428;2023-02-28T01:03:21;99014.75;;;-0.63
61977;BMP280;45905;50.570;10.428;2023-02-28T01:05:49;99015.88;;;-0.70
61977;BMP280;45905;50.570;10.428;2023-02-28T01:08:17;99015.34;;;-0.78
61977;BMP280;45905;50.570;10.428;2023-02-28T01:10:44;99010.63;;;-0.84
61977;BMP280;45905;50.570;10.428;2023-02-28T01:13:12;99010.81;;;-0.88
61977;BMP280;45905;50.570;10.428;2023-02-28T01:15:51;99011.78;;;-0.92
61977;BMP280;45905;50.570;10.428;2023-02-28T01:18:20;99007.75;;;-0.95
61977;BMP280;45905;50.570;10.428;2023-02-28T01:20:48;99004.53;;;-0.96
61977;BMP280;45905;50.570;10.428;2023-02-28T01:23:16;98995.56;;;-1.00
61977;BMP280;45905;50.570;10.428;2023-02-28T01:25:43;99009.50;;;-0.96
61977;BMP280;45905;50.570;10.428;2023-02-28T01:28:10;99006.13;;;-0.96
61977;BMP280;45905;50.570;10.428;2023-02-28T01:30:37;99004.41;;;-0.94
61977;BMP280;45905;50.570;10.428;2023-02-28T01:33:05;98996.19;;;-0.96
61977;BMP280;45905;50.570;10.428;2023-02-28T01:35:35;98994.34;;;-0.91
61977;BMP280;45905;50.570;10.428;2023-02-28T01:38:02;99001.75;;;-0.89
61977;BMP280;45905;50.570;10.428;2023-02-28T01:40:47;99002.41;;;-0.86
61977;BMP280;45905;50.570;10.428;2023-02-28T01:43:29;99000.50;;;-0.79
61977;BMP280;45905;50.570;10.428;2023-02-28T01:45:59;99005.53;;;-0.81
61977;BMP280;45905;50.570;10.428;2023-02-28T01:48:32;99009.94;;;-0.87
61977;BMP280;45905;50.570;10.428;2023-02-28T01:51:10;98999.41;;;-0.94
61977;BMP280;45905;50.570;10.428;2023-02-28T01:53:49;98996.31;;;-0.98
61977;BMP280;45905;50.570;10.428;2023-02-28T01:56:24;98991.19;;;-0.96
61977;BMP280;45905;50.570;10.428;2023-02-28T01:58:54;98991.19;;;-0.96
61977;BMP280;45905;50.570;10.428;2023-02-28T02:01:25;98983.63;;;-0.93
61977;BMP280;45905;50.570;10.428;2023-02-28T02:03:59;98990.22;;;-0.92
61977;BMP280;45905;50.570;10.428;2023-02-28T02:06:48;98990.97;;;-0.90
61977;BMP280;45905;50.570;10.428;2023-02-28T02:09:16;98982.50;;;-0.86
61977;BMP280;45905;50.570;10.428;2023-02-28T02:11:45;98973.44;;;-0.87
61977;BMP280;45905;50.570;10.428;2023-02-28T02:14:34;98979.16;;;-0.85
61977;BMP280;45905;50.570;10.428;2023-02-28T02:17:20;98981.53;;;-0.82
61977;BMP280;45905;50.570;10.428;2023-02-28T02:20:38;98991.38;;;-0.79
61977;BMP280;45905;50.570;10.428;2023-02-28T02:35:23;98982.13;;;-0.77
61977;BMP280;45905;50.570;10.428;2023-02-28T02:38:09;98979.66;;;-0.77
61977;BMP280;45905;50.570;10.428;2023-02-28T02:43:40;98986.25;;;-0.76
61977;BMP280;45905;50.570;10.428;2023-02-28T02:46:18;98980.41;;;-0.75
61977;BMP280;45905;50.570;10.428;2023-02-28T02:48:48;98982.03;;;-0.74
61977;BMP280;45905;50.570;10.428;2023-02-28T02:51:20;98975.44;;;-0.75
61977;BMP280;45905;50.570;10.428;2023-02-28T02:54:05;98978.78;;;-0.76
61977;BMP280;45905;50.570;10.428;2023-02-28T02:56:36;98991.88;;;-0.71
61977;BMP280;45905;50.570;10.428;2023-02-28T02:59:09;98990.25;;;-0.72
61977;BMP280;45905;50.570;10.428;2023-02-28T03:01:41;98988.63;;;-0.73
61977;BMP280;45905;50.570;10.428;2023-02-28T03:04:16;98988.63;;;-0.73
61977;BMP280;45905;50.570;10.428;2023-02-28T03:06:43;98988.63;;;-0.73
61977;BMP280;45905;50.570;10.428;2023-02-28T03:09:10;98991.88;;;-0.71
61977;BMP280;45905;50.570;10.428;2023-02-28T03:11:40;98982.56;;;-0.68
61977;BMP280;45905;50.570;10.428;2023-02-28T03:22:59;98991.59;;;-0.65
61977;BMP280;45905;50.570;10.428;2023-02-28T03:25:54;98978.19;;;-0.61
61977;BMP280;45905;50.570;10.428;2023-02-28T03:34:08;98991.50;;;-0.62
61977;BMP280;45905;50.570;10.428;2023-02-28T03:36:45;98981.53;;;-0.62
61977;BMP280;45905;50.570;10.428;2023-02-28T03:39:21;98988.25;;;-0.64
61977;BMP280;45905;50.570;10.428;2023-02-28T03:42:03;98987.44;;;-0.65
61977;BMP280;45905;50.570;10.428;2023-02-28T03:44:45;98985.00;;;-0.66
61977;BMP280;45905;50.570;10.428;2023-02-28T03:47:29;98985.81;;;-0.66
61977;BMP280;45905;50.570;10.428;2023-02-28T03:50:03;98989.97;;;-0.66
61977;BMP280;45905;50.570;10.428;2023-02-28T03:52:42;98993.28;;;-0.66
61977;BMP280;45905;50.570;10.428;2023-02-28T03:55:14;98994.22;;;-0.68
61977;BMP280;45905;50.570;10.428;2023-02-28T04:01:02;98987.06;;;-0.76
61977;BMP280;45905;50.570;10.428;2023-02-28T04:03:37;98984.78;;;-0.80
61977;BMP280;45905;50.570;10.428;2023-02-28T04:06:08;98991.47;;;-0.82
61977;BMP280;45905;50.570;10.428;2023-02-28T04:08:40;98987.53;;;-0.87
61977;BMP280;45905;50.570;10.428;2023-02-28T04:11:30;98989.34;;;-0.91
61977;BMP280;45905;50.570;10.428;2023-02-28T04:13:59;98998.56;;;-0.93
61977;BMP280;45905;50.570;10.428;2023-02-28T04:16:26;98998.75;;;-0.97
61977;BMP280;45905;50.570;10.428;2023-02-28T04:19:03;98992.31;;;-1.02
61977;BMP280;45905;50.570;10.428;2023-02-28T04:21:38;98992.56;;;-1.08
61977;BMP280;45905;50.570;10.428;2023-02-28T04:24:13;98992.72;;;-1.13
61977;BMP280;45905;50.570;10.428;2023-02-28T04:26:50;98990.38;;;-1.15
61977;BMP280;45905;50.570;10.428;2023-02-28T04:29:22;98989.75;;;-1.20
61977;BMP280;45905;50.570;10.428;2023-02-28T04:31:50;98992.53;;;-1.28
61977;BMP280;45905;50.570;10.428;2023-02-28T04:34:17;98991.91;;;-1.33
61977;BMP280;45905;50.570;10.428;2023-02-28T04:36:45;98995.25;;;-1.33
61977;BMP280;45905;50.570;10.428;2023-02-28T04:39:12;98992.13;;;-1.38
61977;BMP280;45905;50.570;10.428;2023-02-28T04:41:40;98992.25;;;-1.41
61977;BMP280;45905;50.570;10.428;2023-02-28T04:44:07;98987.50;;;-1.47
61977;BMP280;45905;50.570;10.428;2023-02-28T04:46:34;98992.59;;;-1.50
61977;BMP280;45905;50.570;10.428;2023-02-28T04:49:02;99002.75;;;-1.56
61977;BMP280;45905;50.570;10.428;2023-02-28T04:51:30;98998.78;;;-1.60
61977;BMP280;45905;50.570;10.428;2023-02-28T04:53:57;98998.88;;;-1.63
61977;BMP280;45905;50.570;10.428;2023-02-28T04:56:24;99000.72;;;-1.68
61977;BMP280;45905;50.570;10.428;2023-02-28T04:58:52;98990.19;;;-1.74
61977;BMP280;45905;50.570;10.428;2023-02-28T05:01:33;99003.75;;;-1.82
61977;BMP280;45905;50.570;10.428;2023-02-28T05:04:03;98999.78;;;-1.86
61977;BMP280;45905;50.570;10.428;2023-02-28T05:06:33;99004.84;;;-1.89
61977;BMP280;45905;50.570;10.428;2023-02-28T05:09:00;99013.28;;;-1.93
61977;BMP280;45905;50.570;10.428;2023-02-28T05:11:31;99005.94;;;-1.96
61977;BMP280;45905;50.570;10.428;2023-02-28T05:14:13;99021.78;;;-2.00
61977;BMP280;45905;50.570;10.428;2023-02-28T05:16:41;99017.69;;;-2.01
61977;BMP280;45905;50.570;10.428;2023-02-28T05:19:08;99017.88;;;-2.05
61977;BMP280;45905;50.570;10.428;2023-02-28T05:21:49;99018.00;;;-2.10
61977;BMP280;45905;50.570;10.428;2023-02-28T05:24:17;99030.59;;;-2.14
61977;BMP280;45905;50.570;10.428;2023-02-28T05:26:52;99025.63;;;-2.14
61977;BMP280;45905;50.570;10.428;2023-02-28T05:29:20;99027.31;;;-2.14
61977;BMP280;45905;50.570;10.428;2023-02-28T05:31:48;99029.81;;;-2.16
61977;BMP280;45905;50.570;10.428;2023-02-28T05:34:15;99017.41;;;-2.16
61977;BMP280;45905;50.570;10.428;2023-02-28T05:36:43;99019.94;;;-2.17
61977;BMP280;45905;50.570;10.428;2023-02-28T05:39:10;99022.44;;;-2.17
61977;BMP280;45905;50.570;10.428;2023-02-28T05:41:42;99029.91;;;-2.19
61977;BMP280;45905;50.570;10.428;2023-02-28T05:44:10;99022.59;;;-2.22
61977;BMP280;45905;50.570;10.428;2023-02-28T05:46:37;99026.03;;;-2.26
61977;BMP280;45905;50.570;10.428;2023-02-28T05:49:05;99019.56;;;-2.29
61977;BMP280;45905;50.570;10.428;2023-02-28T05:51:32;99024.59;;;-2.31
61977;BMP280;45905;50.570;10.428;2023-02-28T05:54:01;99024.72;;;-2.35
61977;BMP280;45905;50.570;10.428;2023-02-28T05:56:29;99029.00;;;-2.39
61977;BMP280;45905;50.570;10.428;2023-02-28T05:58:56;99027.47;;;-2.43
61977;BMP280;45905;50.570;10.428;2023-02-28T06:01:36;99035.78;;;-2.44
61977;BMP280;45905;50.570;10.428;2023-02-28T06:04:07;99034.09;;;-2.43
61977;BMP280;45905;50.570;10.428;2023-02-28T06:06:40;99036.75;;;-2.47
61977;BMP280;45905;50.570;10.428;2023-02-28T06:09:07;99048.31;;;-2.47
61977;BMP280;45905;50.570;10.428;2023-02-28T06:11:34;99044.28;;;-2.50
61977;BMP280;45905;50.570;10.428;2023-02-28T06:14:03;99053.44;;;-2.52
61977;BMP280;45905;50.570;10.428;2023-02-28T06:16:33;99053.56;;;-2.55
61977;BMP280;45905;50.570;10.428;2023-02-28T06:19:04;99054.47;;;-2.58
61977;BMP280;45905;50.570;10.428;2023-02-28T06:21:31;99061.91;;;-2.58
61977;BMP280;45905;50.570;10.428;2023-02-28T06:23:59;99056.09;;;-2.57
61977;BMP280;45905;50.570;10.428;2023-02-28T06:26:26;99057.78;;;-2.59
61977;BMP280;45905;50.570;10.428;2023-02-28T06:28:54;99068.53;;;-2.58
61977;BMP280;45905;50.570;10.428;2023-02-28T06:31:22;99070.16;;;-2.57
61977;BMP280;45905;50.570;10.428;2023-02-28T06:33:50;99063.56;;;-2.58
61977;BMP280;45905;50.570;10.428;2023-02-28T06:36:17;99064.38;;;-2.58
61977;BMP280;45905;50.570;10.428;2023-02-28T06:38:45;99074.25;;;-2.56
61977;BMP280;45905;50.570;10.428;2023-02-28T06:41:12;99075.84;;;-2.54
61977;BMP280;45905;50.570;10.428;2023-02-28T06:43:42;99082.41;;;-2.53
61977;BMP280;45905;50.570;10.428;2023-02-28T06:46:13;99083.16;;;-2.51
61977;BMP280;45905;50.570;10.428;2023-02-28T06:48:44;99086.47;;;-2.50
61977;BMP280;45905;50.570;10.428;2023-02-28T06:51:15;99093.03;;;-2.49
61977;BMP280;45905;50.570;10.428;2023-02-28T06:53:43;99089.66;;;-2.47
61977;BMP280;45905;50.570;10.428;2023-02-28T06:56:13;99085.31;;;-2.41
61977;BMP280;45905;50.570;10.428;2023-02-28T06:58:41;99088.50;;;-2.37
61977;BMP280;45905;50.570;10.428;2023-02-28T07:01:09;99097.63;;;-2.38
61977;BMP280;45905;50.570;10.428;2023-02-28T07:03:36;99097.63;;;-2.38
61977;BMP280;45905;50.570;10.428;2023-02-28T07:06:05;99100.91;;;-2.37
61977;BMP280;45905;50.570;10.428;2023-02-28T07:08:34;99096.75;;;-2.37
61977;BMP280;45905;50.570;10.428;2023-02-28T07:11:02;99095.88;;;-2.36
61977;BMP280;45905;50.570;10.428;2023-02-28T07:13:29;99105.72;;;-2.33
61977;BMP280;45905;50.570;10.428;2023-02-28T07:16:05;99096.69;;;-2.35
61977;BMP280;45905;50.570;10.428;2023-02-28T07:18:33;99102.41;;;-2.33
61977;BMP280;45905;50.570;10.428;2023-02-28T07:21:06;99109.72;;;-2.29
61977;BMP280;45905;50.570;10.428;2023-02-28T07:23:34;99098.94;;;-2.28
61977;BMP280;45905;50.570;10.428;2023-02-28T07:26:02;99093.97;;;-2.28
61977;BMP280;45905;50.570;10.428;2023-02-28T07:28:29;99100.44;;;-2.24
61977;BMP280;45905;50.570;10.428;2023-02-28T07:30:56;99097.09;;;-2.23
61977;BMP280;45905;50.570;10.428;2023-02-28T07:33:23;99106.22;;;-2.24
61977;BMP280;45905;50.570;10.428;2023-02-28T07:35:51;99102.03;;;-2.22
61977;BMP280;45905;50.570;10.428;2023-02-28T07:38:18;99110.16;;;-2.18
61977;BMP280;45905;50.570;10.428;2023-02-28T07:40:45;99096.81;;;-2.14
61977;BMP280;45905;50.570;10.428;2023-02-28T07:43:12;99086.72;;;-2.10
61977;BMP280;45905;50.570;10.428;2023-02-28T07:45:39;99093.16;;;-2.05
61977;BMP280;45905;50.570;10.428;2023-02-28T07:48:07;99102.78;;;-1.96
61977;BMP280;45905;50.570;10.428;2023-02-28T07:50:37;99097.59;;;-1.90
61977;BMP280;45905;50.570;10.428;2023-02-28T07:53:04;99101.38;;;-1.80
61977;BMP280;45905;50.570;10.428;2023-02-28T07:55:31;99096.28;;;-1.76
61977;BMP280;45905;50.570;10.428;2023-02-28T07:57:59;99097.66;;;-1.69
61977;BMP280;45905;50.570;10.428;2023-02-28T08:00:26;99090.03;;;-1.65
61977;BMP280;45905;50.570;10.428;2023-02-28T08:02:53;99093.13;;;-1.58
61977;BMP280;45905;50.570;10.428;2023-02-28T08:05:20;99085.50;;;-1.54
61977;BMP280;45905;50.570;10.428;2023-02-28T08:07:49;99098.66;;;-1.51
61977;BMP280;45905;50.570;10.428;2023-02-28T08:10:17;99081.94;;;-1.47
61977;BMP280;45905;50.570;10.428;2023-02-28T08:12:44;99082.53;;;-1.41
61977;BMP280;45905;50.570;10.428;2023-02-28T08:15:11;99081.59;;;-1.38
61977;BMP280;45905;50.570;10.428;2023-02-28T08:17:38;99082.25;;;-1.33
61977;BMP280;45905;50.570;10.428;2023-02-28T08:20:07;99087.84;;;-1.29
61977;BMP280;45905;50.570;10.428;2023-02-28T08:22:34;99089.41;;;-1.26
61977;BMP280;45905;50.570;10.428;2023-02-28T08:25:01;99100.00;;;-1.21
61977;BMP280;45905;50.570;10.428;2023-02-28T08:27:28;99094.06;;;-1.17
61977;BMP280;45905;50.570;10.428;2023-02-28T08:29:55;99092.31;;;-1.15
61977;BMP280;45905;50.570;10.428;2023-02-28T08:32:22;99087.97;;;-1.11
61977;BMP280;45905;50.570;10.428;2023-02-28T08:34:56;99089.38;;;-1.04
61977;BMP280;45905;50.570;10.428;2023-02-28T08:37:23;99078.50;;;-1.01
61977;BMP280;45905;50.570;10.428;2023-02-28T08:39:51;99083.13;;;-0.93
61977;BMP280;45905;50.570;10.428;2023-02-28T08:42:23;99078.72;;;-0.86
61977;BMP280;45905;50.570;10.428;2023-02-28T08:44:50;99086.63;;;-0.77
61977;BMP280;45905;50.570;10.428;2023-02-28T08:47:18;99086.31;;;-0.70
61977;BMP280;45905;50.570;10.428;2023-02-28T08:49:45;99092.56;;;-0.60
61977;BMP280;45905;50.570;10.428;2023-02-28T08:52:13;99092.34;;;-0.54
61977;BMP280;45905;50.570;10.428;2023-02-28T08:54:40;99092.97;;;-0.49
61977;BMP280;45905;50.570;10.428;2023-02-28T08:57:07;99096.91;;;-0.44
61977;BMP280;45905;50.570;10.428;2023-02-28T08:59:34;99088.31;;;-0.37
61977;BMP280;45905;50.570;10.428;2023-02-28T09:02:01;99089.78;;;-0.33
61977;BMP280;45905;50.570;10.428;2023-02-28T09:04:29;99088.75;;;-0.28
61977;BMP280;45905;50.570;10.428;2023-02-28T09:06:57;99083.63;;;-0.25
61977;BMP280;45905;50.570;10.428;2023-02-28T09:09:25;99084.31;;;-0.21
61977;BMP280;45905;50.570;10.428;2023-02-28T09:11:52;99080.59;;;-0.12
61977;BMP280;45905;50.570;10.428;2023-02-28T09:14:19;99079.50;;;-0.06
61977;BMP280;45905;50.570;10.428;2023-02-28T09:16:46;99082.63;;;-0.01
61977;BMP280;45905;50.570;10.428;2023-02-28T09:19:13;99084.16;;;0.01
61977;BMP280;45905;50.570;10.428;2023-02-28T09:21:41;99093.94;;;0.05
61977;BMP280;45905;50.570;10.428;2023-02-28T09:24:08;99078.94;;;0.07
61977;BMP280;45905;50.570;10.428;2023-02-28T09:26:37;99087.03;;;0.12
61977;BMP280;45905;50.570;10.428;2023-02-28T09:29:13;99081.09;;;0.14
61977;BMP280;45905;50.570;10.428;2023-02-28T09:31:41;99085.06;;;0.18
61977;BMP280;45905;50.570;10.428;2023-02-28T09:34:08;99079.16;;;0.20
61977;BMP280;45905;50.570;10.428;2023-02-28T09:36:36;99081.47;;;0.25
61977;BMP280;45905;50.570;10.428;2023-02-28T09:39:13;99089.53;;;0.30
61977;BMP280;45905;50.570;10.428;2023-02-28T09:41:47;99085.31;;;0.32
61977;BMP280;45905;50.570;10.428;2023-02-28T09:44:37;99076.91;;;0.34
61977;BMP280;45905;50.570;10.428;2023-02-28T09:47:38;99083.22;;;0.41
61977;BMP280;45905;50.570;10.428;2023-02-28T09:50:31;99075.47;;;0.47
61977;BMP280;45905;50.570;10.428;2023-02-28T09:53:09;99075.28;;;0.51
61977;BMP280;45905;50.570;10.428;2023-02-28T09:55:47;99084.19;;;0.57
61977;BMP280;45905;50.570;10.428;2023-02-28T09:58:46;99085.56;;;0.62
61977;BMP280;45905;50.570;10.428;2023-02-28T10:06:51;99090.66;;;0.78
61977;BMP280;45905;50.570;10.428;2023-02-28T10:09:31;99087.81;;;0.86
61977;BMP280;45905;50.570;10.428;2023-02-28T10:12:05;99095.88;;;0.91
61977;BMP280;45905;50.570;10.428;2023-02-28T10:14:35;99085.78;;;0.94
61977;BMP280;45905;50.570;10.428;2023-02-28T10:17:19;99084.59;;;1.00
61977;BMP280;45905;50.570;10.428;2023-02-28T10:20:02;99079.25;;;1.08
61977;BMP280;45905;50.570;10.428;2023-02-28T10:23:20;99073.91;;;1.15
61977;BMP280;45905;50.570;10.428;2023-02-28T10:25:59;99084.34;;;1.23
61977;BMP280;45905;50.570;10.428;2023-02-28T10:28:29;99079.84;;;1.31
61977;BMP280;45905;50.570;10.428;2023-02-28T10:30:58;99064.56;;;1.36
61977;BMP280;45905;50.570;10.428;2023-02-28T10:33:32;99075.13;;;1.41
61977;BMP280;45905;50.570;10.428;2023-02-28T10:36:03;99079.84;;;1.47
61977;BMP280;45905;50.570;10.428;2023-02-28T10:38:38;99075.41;;;1.52
61977;BMP280;45905;50.570;10.428;2023-02-28T10:41:09;99082.59;;;1.58
61977;BMP280;45905;50.570;10.428;2023-02-28T10:43:40;99073.97;;;1.65
61977;BMP280;45905;50.570;10.428;2023-02-28T10:46:12;99081.81;;;1.74
61977;BMP280;45905;50.570;10.428;2023-02-28T10:48:59;99082.19;;;1.83
61977;BMP280;45905;50.570;10.428;2023-02-28T10:51:37;99076.28;;;1.84
61977;BMP280;45905;50.570;10.428;2023-02-28T10:54:05;99072.63;;;1.91
61977;BMP280;45905;50.570;10.428;2023-02-28T10:56:32;99067.44;;;1.94
61977;BMP280;45905;50.570;10.428;2023-02-28T11:01:45;99067.25;;;1.98
61977;BMP280;45905;50.570;10.428;2023-02-28T11:07:25;99063.94;;;1.98
61977;BMP280;45905;50.570;10.428;2023-02-28T11:09:58;99074.03;;;2.11
61977;BMP280;45905;50.570;10.428;2023-02-28T11:12:36;99060.94;;;2.23
61977;BMP280;45905;50.570;10.428;2023-02-28T11:15:33;99065.72;;;2.43
61977;BMP280;45905;50.570;10.428;2023-02-28T11:20:39;99053.69;;;2.64
61977;BMP280;45905;50.570;10.428;2023-02-28T11:23:13;99043.22;;;2.73
61977;BMP280;45905;50.570;10.428;2023-02-28T11:25:57;99051.06;;;2.67
61977;BMP280;45905;50.570;10.428;2023-02-28T11:28:32;99048.63;;;2.66
61977;BMP280;45905;50.570;10.428;2023-02-28T11:36:26;99036.84;;;2.83
61977;BMP280;45905;50.570;10.428;2023-02-28T11:38:59;99043.53;;;2.97
61977;BMP280;45905;50.570;10.428;2023-02-28T11:45:22;99031.56;;;3.02
61977;BMP280;45905;50.570;10.428;2023-02-28T11:48:16;99030.91;;;2.99
61977;BMP280;45905;50.570;10.428;2023-02-28T11:51:15;99026.28;;;3.06
61977;BMP280;45905;50.570;10.428;2023-02-28T11:56:52;99021.06;;;3.11
61977;BMP280;45905;50.570;10.428;2023-02-28T12:02:05;99013.94;;;3.19
61977;BMP280;45905;50.570;10.428;2023-02-28T12:10:30;99023.63;;;3.09
61977;BMP280;45905;50.570;10.428;2023-02-28T12:16:17;99008.56;;;3.24
61977;BMP280;45905;50.570;10.428;2023-02-28T12:28:13;99008.31;;;3.58
61977;BMP280;45905;50.570;10.428;2023-02-28T12:31:00;98995.63;;;3.74
61977;BMP280;45905;50.570;10.428;2023-02-28T12:33:36;98997.31;;;3.87
61977;BMP280;45905;50.570;10.428;2023-02-28T12:36:11;99002.06;;;4.05
61977;BMP280;45905;50.570;10.428;2023-02-28T12:38:53;98988.91;;;4.16
61977;BMP280;45905;50.570;10.428;2023-02-28T12:41:42;98976.44;;;4.28
61977;BMP280;45905;50.570;10.428;2023-02-28T12:46:58;98975.00;;;4.38
61977;BMP280;45905;50.570;10.428;2023-02-28T12:49:46;98966.94;;;4.33
61977;BMP280;45905;50.570;10.428;2023-02-28T12:52:22;98970.53;;;4.29
61977;BMP280;45905;50.570;10.428;2023-02-28T12:57:52;98962.75;;;4.59
61977;BMP280;45905;50.570;10.428;2023-02-28T13:00:29;98955.53;;;4.67
61977;BMP280;45905;50.570;10.428;2023-02-28T13:06:08;98962.16;;;4.81
61977;BMP280;45905;50.570;10.428;2023-02-28T13:11:45;98944.03;;;4.76
61977;BMP280;45905;50.570;10.428;2023-02-28T13:19:58;98947.19;;;4.92
61977;BMP280;45905;50.570;10.428;2023-02-28T13:25:02;98944.28;;;4.86
61977;BMP280;45905;50.570;10.428;2023-02-28T13:27:54;98940.81;;;4.75
61977;BMP280;45905;50.570;10.428;2023-02-28T13:33:28;98943.47;;;4.85
61977;BMP280;45905;50.570;10.428;2023-02-28T13:38:53;98945.78;;;4.88
61977;BMP280;45905;50.570;10.428;2023-02-28T13:49:29;98950.66;;;5.03
61977;BMP280;45905;50.570;10.428;2023-02-28T14:04:02;98947.28;;;5.29
61977;BMP280;45905;50.570;10.428;2023-02-28T14:06:38;98947.69;;;5.23
61977;BMP280;45905;50.570;10.428;2023-02-28T14:09:33;98930.69;;;5.26
61977;BMP280;45905;50.570;10.428;2023-02-28T14:12:59;98920.34;;;5.43
61977;BMP280;45905;50.570;10.428;2023-02-28T14:18:03;98921.16;;;5.55
61977;BMP280;45905;50.570;10.428;2023-02-28T14:20:33;98919.03;;;5.62
61977;BMP280;45905;50.570;10.428;2023-02-28T14:31:13;98914.66;;;5.65
61977;BMP280;45905;50.570;10.428;2023-02-28T14:34:04;98916.63;;;5.60
61977;BMP280;45905;50.570;10.428;2023-02-28T14:36:39;98922.34;;;5.62
61977;BMP280;45905;50.570;10.428;2023-02-28T14:39:12;98908.88;;;5.63
61977;BMP280;45905;50.570;10.428;2023-02-28T14:41:43;98915.22;;;5.56
61977;BMP280;45905;50.570;10.428;2023-02-28T14:44:23;98911.72;;;5.47
61977;BMP280;45905;50.570;10.428;2023-02-28T14:46:55;98906.28;;;5.40
61977;BMP280;45905;50.570;10.428;2023-02-28T14:49:43;98909.19;;;5.47
61977;BMP280;45905;50.570;10.428;2023-02-28T14:52:29;98907.16;;;5.51
61977;BMP280;45905;50.570;10.428;2023-02-28T14:55:03;98906.16;;;5.54
61977;BMP280;45905;50.570;10.428;2023-02-28T14:57:33;98902.34;;;5.61
61977;BMP280;45905;50.570;10.428;2023-02-28T15:00:16;98910.69;;;5.61
61977;BMP280;45905;50.570;10.428;2023-02-28T15:02:47;98902.13;;;5.51
61977;BMP280;45905;50.570;10.428;2023-02-28T15:07:46;98911.38;;;5.27
61977;BMP280;45905;50.570;10.428;2023-02-28T15:10:23;98902.66;;;5.20
61977;BMP280;45905;50.570;10.428;2023-02-28T15:12:58;98902.56;;;5.21
61977;BMP280;45905;50.570;10.428;2023-02-28T15:21:27;98896.09;;;5.17
61977;BMP280;45905;50.570;10.428;2023-02-28T15:23:58;98909.47;;;5.18
61977;BMP280;45905;50.570;10.428;2023-02-28T15:26:41;98902.25;;;5.13
61977;BMP280;45905;50.570;10.428;2023-02-28T15:29:20;98899.72;;;5.13
61977;BMP280;45905;50.570;10.428;2023-02-28T15:31:56;98904.75;;;5.13
61977;BMP280;45905;50.570;10.428;2023-02-28T15:34:43;98913.38;;;5.10
61977;BMP280;45905;50.570;10.428;2023-02-28T15:37:39;98919.88;;;5.00
61977;BMP280;45905;50.570;10.428;2023-02-28T15:40:41;98915.66;;;4.88
61977;BMP280;45905;50.570;10.428;2023-02-28T15:43:39;98918.94;;;4.76
61977;BMP280;45905;50.570;10.428;2023-02-28T15:46:10;98903.81;;;4.64
61977;BMP280;45905;50.570;10.428;2023-02-28T15:48:55;98921.06;;;4.56
61977;BMP280;45905;50.570;10.428;2023-02-28T15:51:36;98908.50;;;4.44
61977;BMP280;45905;50.570;10.428;2023-02-28T15:54:16;98921.41;;;4.38
61977;BMP280;45905;50.570;10.428;2023-02-28T15:56:51;98915.16;;;4.32
61977;BMP280;45905;50.570;10.428;2023-02-28T15:59:27;98915.97;;;4.32
61977;BMP280;45905;50.570;10.428;2023-02-28T16:04:57;98912.34;;;4.10
61977;BMP280;45905;50.570;10.428;2023-02-28T16:07:25;98921.84;;;4.05
61977;BMP280;45905;50.570;10.428;2023-02-28T16:09:54;98922.94;;;4.01
61977;BMP280;45905;50.570;10.428;2023-02-28T16:12:30;98921.78;;;3.93
61977;BMP280;45905;50.570;10.428;2023-02-28T16:15:02;98938.25;;;3.83
61977;BMP280;45905;50.570;10.428;2023-02-28T16:17:35;98939.41;;;3.78
61977;BMP280;45905;50.570;10.428;2023-02-28T16:20:16;98939.94;;;3.69
61977;BMP280;45905;50.570;10.428;2023-02-28T16:22:44;98941.13;;;3.64
61977;BMP280;45905;50.570;10.428;2023-02-28T16:25:18;98943.88;;;3.60
61977;BMP280;45905;50.570;10.428;2023-02-28T16:27:52;98944.06;;;3.57
61977;BMP280;45905;50.570;10.428;2023-02-28T16:30:27;98945.31;;;3.50
61977;BMP280;45905;50.570;10.428;2023-02-28T16:32:55;98946.63;;;3.42
61977;BMP280;45905;50.570;10.428;2023-02-28T16:35:24;98957.81;;;3.36
61977;BMP280;45905;50.570;10.428;2023-02-28T16:37:52;98951.53;;;3.29
61977;BMP280;45905;50.570;10.428;2023-02-28T16:40:25;98958.41;;;3.26
61977;BMP280;45905;50.570;10.428;2023-02-28T16:42:58;98961.19;;;3.22
61977;BMP280;45905;50.570;10.428;2023-02-28T16:45:28;98963.84;;;3.19
61977;BMP280;45905;50.570;10.428;2023-02-28T16:47:56;98962.44;;;3.15
61977;BMP280;45905;50.570;10.428;2023-02-28T16:50:29;98967.59;;;3.12
61977;BMP280;45905;50.570;10.428;2023-02-28T16:52:57;98975.19;;;3.10
61977;BMP280;45905;50.570;10.428;2023-02-28T16:55:25;98980.47;;;3.06
61977;BMP280;45905;50.570;10.428;2023-02-28T16:57:59;98981.50;;;3.02
61977;BMP280;45905;50.570;10.428;2023-02-28T17:00:30;98985.06;;;2.98
61977;BMP280;45905;50.570;10.428;2023-02-28T17:02:59;98984.66;;;2.90